createdAt,value
2022-09-28T00:02:28.141Z,14.50
2022-09-28T00:05:14.605Z,14.52
2022-09-28T00:08:01.090Z,14.54
2022-09-28T00:10:54.979Z,14.50
2022-09-28T00:13:43.007Z,14.40
2022-09-28T00:16:32.904Z,14.40
2022-09-28T00:19:18.947Z,14.42
2022-09-28T00:22:05.164Z,14.42
2022-09-28T00:24:51.125Z,14.44
2022-09-28T00:27:36.908Z,14.35
2022-09-28T00:30:23.008Z,14.41
2022-09-28T00:33:08.708Z,14.31
2022-09-28T00:35:56.402Z,14.40
2022-09-28T00:38:42.894Z,14.31
2022-09-28T00:41:29.816Z,14.33
2022-09-28T00:44:34.621Z,14.32
2022-09-28T00:47:23.567Z,14.38
2022-09-28T00:50:32.065Z,14.35
2022-09-28T00:53:22.068Z,14.35
2022-09-28T00:56:13.548Z,14.30
2022-09-28T00:59:00.143Z,14.27
2022-09-28T01:01:46.851Z,14.33
2022-09-28T01:04:33.168Z,14.29
2022-09-28T01:07:20.288Z,14.33
2022-09-28T01:10:07.434Z,14.22
2022-09-28T01:12:55.807Z,14.24
2022-09-28T01:15:51.958Z,13.95
2022-09-28T01:18:53.854Z,14.04
2022-09-28T01:22:17.910Z,14.07
2022-09-28T01:25:12.346Z,14.01
2022-09-28T01:28:07.108Z,14.04
2022-09-28T01:31:00.376Z,14.02
2022-09-28T01:33:50.505Z,14.10
2022-09-28T01:36:42.368Z,14.00
2022-09-28T01:39:38.958Z,14.08
2022-09-28T01:42:28.194Z,14.11
2022-09-28T01:45:22.924Z,14.10
2022-09-28T01:48:11.718Z,14.14
2022-09-28T01:50:59.776Z,14.17
2022-09-28T01:53:52.841Z,13.94
2022-09-28T01:56:46.024Z,14.09
2022-09-28T01:59:33.794Z,14.15
2022-09-28T02:02:25.306Z,14.16
2022-09-28T02:05:18.521Z,14.14
2022-09-28T02:08:21.788Z,14.15
2022-09-28T02:11:19.639Z,14.11
2022-09-28T02:14:09.102Z,14.17
2022-09-28T02:16:55.525Z,14.11
2022-09-28T02:19:47.782Z,14.21
2022-09-28T02:22:43.783Z,14.20
2022-09-28T02:25:36.812Z,14.24
2022-09-28T02:28:23.272Z,14.17
2022-09-28T02:31:10.030Z,14.28
2022-09-28T02:33:57.822Z,14.26
2022-09-28T02:36:45.037Z,14.28
2022-09-28T02:39:31.708Z,14.33
2022-09-28T02:42:27.831Z,14.29
2022-09-28T02:45:25.433Z,14.30
2022-09-28T02:48:41.222Z,14.44
2022-09-28T02:51:36.255Z,14.42
2022-09-28T02:54:52.989Z,14.38
2022-09-28T02:58:02.062Z,14.38
2022-09-28T03:01:15.358Z,14.36
2022-09-28T03:04:04.889Z,14.42
2022-09-28T03:07:00.278Z,14.40
2022-09-28T03:09:56.180Z,14.28
2022-09-28T03:12:44.633Z,14.41
2022-09-28T03:15:32.813Z,14.41
2022-09-28T03:18:19.325Z,14.42
2022-09-28T03:21:05.821Z,14.46
2022-09-28T03:23:51.749Z,14.41
2022-09-28T03:26:40.626Z,14.42
2022-09-28T03:29:27.006Z,14.31
2022-09-28T03:32:18.858Z,14.30
2022-09-28T03:35:05.453Z,14.40
2022-09-28T03:37:55.913Z,14.38
2022-09-28T03:40:43.320Z,14.46
2022-09-28T03:43:31.180Z,14.44
2022-09-28T03:46:19.095Z,14.46
2022-09-28T03:49:12.538Z,14.46
2022-09-28T03:51:58.474Z,14.51
2022-09-28T03:54:48.953Z,14.54
2022-09-28T03:57:35.660Z,14.52
2022-09-28T04:00:21.698Z,14.54
2022-09-28T04:03:08.620Z,14.52
2022-09-28T04:05:54.911Z,14.60
2022-09-28T04:08:43.460Z,14.59
2022-09-28T04:11:47.563Z,14.60
2022-09-28T04:14:37.014Z,14.60
2022-09-28T04:17:23.307Z,14.58
2022-09-28T04:20:09.503Z,14.57
2022-09-28T04:23:17.051Z,14.63
2022-09-28T04:26:04.798Z,14.66
2022-09-28T04:29:09.189Z,14.63
2022-09-28T04:31:55.888Z,14.66
2022-09-28T04:34:54.132Z,14.67
2022-09-28T04:37:40.703Z,14.58
2022-09-28T04:40:26.955Z,14.69
2022-09-28T04:43:12.829Z,14.74
2022-09-28T04:46:00.466Z,14.73
2022-09-28T04:48:50.781Z,14.69
2022-09-28T04:52:04.796Z,14.72
2022-09-28T04:54:52.615Z,14.73
2022-09-28T04:57:38.639Z,14.74
2022-09-28T05:00:24.610Z,14.76
2022-09-28T05:03:24.954Z,14.81
2022-09-28T05:06:27.981Z,14.83
2022-09-28T05:09:19.468Z,14.82
2022-09-28T05:12:06.407Z,14.78
2022-09-28T05:14:52.765Z,14.87
2022-09-28T05:17:38.888Z,14.80
2022-09-28T05:20:47.497Z,14.81
2022-09-28T05:23:34.661Z,14.91
2022-09-28T05:26:21.101Z,14.92
2022-09-28T05:29:07.981Z,14.95
2022-09-28T05:32:06.015Z,14.92
2022-09-28T05:34:55.907Z,15.01
2022-09-28T05:37:46.560Z,15.01
2022-09-28T05:40:32.797Z,15.02
2022-09-28T05:43:18.799Z,15.05
2022-09-28T05:46:05.962Z,15.05
2022-09-28T05:48:55.943Z,15.09
2022-09-28T05:51:43.006Z,15.09
2022-09-28T05:54:28.835Z,15.09
2022-09-28T05:57:15.050Z,15.19
2022-09-28T06:00:01.454Z,15.15
2022-09-28T06:02:56.407Z,15.21
2022-09-28T06:05:42.604Z,15.23
2022-09-28T06:08:28.560Z,15.09
2022-09-28T06:11:27.028Z,15.21
2022-09-28T06:14:14.483Z,15.25
2022-09-28T06:17:00.837Z,15.29
2022-09-28T06:19:47.722Z,15.32
2022-09-28T06:22:54.554Z,15.41
2022-09-28T06:25:40.950Z,15.43
2022-09-28T06:28:26.997Z,15.50
2022-09-28T06:31:12.923Z,15.56
2022-09-28T06:34:04.192Z,15.61
2022-09-28T06:36:50.276Z,15.67
2022-09-28T06:39:36.183Z,15.59
2022-09-28T06:42:22.114Z,15.65
2022-09-28T06:45:28.252Z,15.71
2022-09-28T06:48:50.155Z,15.81
2022-09-28T06:51:55.111Z,15.86
2022-09-28T06:54:53.113Z,15.96
2022-09-28T06:57:48.582Z,16.09
2022-09-28T07:00:36.071Z,16.09
2022-09-28T07:03:23.172Z,16.26
2022-09-28T07:06:31.014Z,16.31
2022-09-28T07:09:32.987Z,16.25
2022-09-28T07:12:39.889Z,16.53
2022-09-28T07:15:44.892Z,16.43
2022-09-28T07:18:33.532Z,16.64
2022-09-28T07:21:27.363Z,16.75
2022-09-28T07:24:17.719Z,16.79
2022-09-28T07:27:28.125Z,16.99
2022-09-28T07:30:34.819Z,17.07
2022-09-28T07:33:40.888Z,17.22
2022-09-28T07:36:46.809Z,17.40
2022-09-28T07:39:52.572Z,17.52
2022-09-28T07:42:38.495Z,17.64
2022-09-28T07:45:24.990Z,17.74
2022-09-28T07:54:13.724Z,17.98
2022-09-28T07:57:21.079Z,18.10
2022-09-28T08:00:29.805Z,18.25
2022-09-28T08:03:19.937Z,18.31
2022-09-28T08:06:09.855Z,18.53
2022-09-28T08:08:56.952Z,18.52
2022-09-28T08:11:54.854Z,18.67
2022-09-28T08:15:04.589Z,18.65
2022-09-28T08:18:06.351Z,18.74
2022-09-28T08:21:11.752Z,18.76
2022-09-28T08:23:57.598Z,18.97
2022-09-28T08:26:44.289Z,18.73
2022-09-28T08:29:33.635Z,19.20
2022-09-28T08:32:49.387Z,19.45
2022-09-28T08:35:58.913Z,19.35
2022-09-28T08:39:10.698Z,19.61
2022-09-28T08:42:32.327Z,19.26
2022-09-28T08:45:51.185Z,19.47
2022-09-28T08:49:26.565Z,19.46
2022-09-28T08:52:35.968Z,19.35
2022-09-28T08:55:45.267Z,19.72
2022-09-28T08:58:34.337Z,19.71
2022-09-28T09:01:21.379Z,19.76
2022-09-28T09:04:09.194Z,19.57
2022-09-28T09:07:39.482Z,19.63
2022-09-28T09:10:42.677Z,19.54
2022-09-28T09:13:45.805Z,19.59
2022-09-28T09:16:39.611Z,19.58
2022-09-28T09:19:45.467Z,19.55
2022-09-28T09:22:48.643Z,19.50
2022-09-28T09:25:50.893Z,19.39
2022-09-28T09:29:11.617Z,19.00
2022-09-28T09:32:10.047Z,19.18
2022-09-28T09:35:28.488Z,19.10
2022-09-28T09:38:27.836Z,18.76
2022-09-28T09:41:58.172Z,19.09
2022-09-28T09:45:06.146Z,19.02
2022-09-28T09:48:43.387Z,19.39
2022-09-28T09:52:12.990Z,18.87
2022-09-28T09:55:14.165Z,19.40
2022-09-28T09:58:15.994Z,19.54
2022-09-28T10:01:12.542Z,19.28
2022-09-28T10:04:26.342Z,19.36
2022-09-28T10:07:43.298Z,19.67
2022-09-28T10:10:34.524Z,19.79
2022-09-28T10:13:29.397Z,19.79
2022-09-28T10:16:19.128Z,19.38
2022-09-28T10:19:15.637Z,19.71
2022-09-28T10:22:28.583Z,19.37
2022-09-28T10:25:18.220Z,19.22
2022-09-28T10:28:06.370Z,18.86
2022-09-28T10:30:53.117Z,19.04
2022-09-28T10:33:39.121Z,19.12
2022-09-28T10:36:26.308Z,19.03
2022-09-28T10:39:58.241Z,18.99
2022-09-28T10:42:47.038Z,18.89
2022-09-28T10:45:36.417Z,18.97
2022-09-28T10:48:23.047Z,18.77
2022-09-28T10:51:09.287Z,18.93
2022-09-28T10:54:02.485Z,19.17
2022-09-28T10:57:28.341Z,19.30
2022-09-28T11:00:39.392Z,19.31
2022-09-28T11:03:50.352Z,19.41
2022-09-28T11:06:39.433Z,19.69
2022-09-28T11:09:31.501Z,19.75
2022-09-28T11:12:26.311Z,19.87
2022-09-28T11:15:38.858Z,20.06
2022-09-28T11:18:31.889Z,19.90
2022-09-28T11:21:26.138Z,20.18
2022-09-28T11:24:26.048Z,19.89
2022-09-28T11:27:34.185Z,19.95
2022-09-28T11:30:24.859Z,20.21
2022-09-28T11:33:42.569Z,20.22
2022-09-28T11:36:47.029Z,20.14
2022-09-28T11:40:01.684Z,20.28
2022-09-28T11:43:00.547Z,20.29
2022-09-28T11:45:55.044Z,20.37
2022-09-28T11:48:58.281Z,20.26
2022-09-28T11:51:45.966Z,20.26
2022-09-28T11:54:43.208Z,20.38
2022-09-28T11:57:35.890Z,20.44
2022-09-28T12:00:22.495Z,20.49
2022-09-28T12:03:29.026Z,20.49
2022-09-28T12:06:19.454Z,20.61
2022-09-28T12:09:11.622Z,20.64
2022-09-28T12:12:34.585Z,20.76
2022-09-28T12:15:59.557Z,20.81
2022-09-28T12:19:08.219Z,20.88
2022-09-28T12:21:57.084Z,21.10
2022-09-28T12:24:47.543Z,21.22
2022-09-28T12:27:51.651Z,21.24
2022-09-28T12:30:40.753Z,21.43
2022-09-28T12:33:26.917Z,21.29
2022-09-28T12:36:19.760Z,21.36
2022-09-28T12:39:40.618Z,21.42
2022-09-28T12:42:53.045Z,21.60
2022-09-28T12:46:11.998Z,21.75
2022-09-28T12:50:13.832Z,21.74
2022-09-28T12:52:36.910Z,21.93
2022-09-28T12:55:44.189Z,21.76
2022-09-28T12:58:52.231Z,21.90
2022-09-28T13:01:43.230Z,22.17
2022-09-28T13:04:56.945Z,22.25
2022-09-28T13:07:53.970Z,22.24
2022-09-28T13:10:44.415Z,22.40
2022-09-28T13:14:17.784Z,22.08
2022-09-28T13:17:27.065Z,22.70
2022-09-28T13:20:31.265Z,22.91
2022-09-28T13:23:22.002Z,22.95
2022-09-28T13:26:31.798Z,22.55
2022-09-28T13:29:19.268Z,22.88
2022-09-28T13:32:08.239Z,23.13
2022-09-28T13:34:54.849Z,23.24
2022-09-28T13:37:41.585Z,23.34
2022-09-28T13:41:04.709Z,23.58
2022-09-28T13:44:02.999Z,24.04
2022-09-28T13:46:55.228Z,24.47
2022-09-28T13:50:00.740Z,24.80
2022-09-28T13:53:11.806Z,25.22
2022-09-28T13:56:28.439Z,25.79
2022-09-28T13:59:24.883Z,26.09
2022-09-28T14:02:37.779Z,26.66
2022-09-28T14:05:25.465Z,27.15
2022-09-28T14:08:23.570Z,27.34
2022-09-28T14:11:24.804Z,27.47
2022-09-28T14:14:11.898Z,27.52
2022-09-28T14:17:27.229Z,27.29
2022-09-28T14:20:15.611Z,27.02
2022-09-28T14:23:25.310Z,26.52
2022-09-28T14:26:11.360Z,26.15
2022-09-28T14:29:28.796Z,25.25
2022-09-28T14:32:25.113Z,25.37
2022-09-28T14:35:20.583Z,25.60
2022-09-28T14:38:33.242Z,25.67
2022-09-28T14:41:33.795Z,25.89
2022-09-28T14:44:20.132Z,26.02
2022-09-28T14:47:33.526Z,25.99
2022-09-28T14:50:28.308Z,25.83
2022-09-28T14:53:20.240Z,25.76
2022-09-28T14:56:08.707Z,25.45
2022-09-28T14:58:57.723Z,25.34
2022-09-28T15:01:51.532Z,25.08
2022-09-28T15:04:43.073Z,24.86
2022-09-28T15:07:37.533Z,24.34
2022-09-28T15:10:31.326Z,24.25
2022-09-28T15:13:28.222Z,24.08
2022-09-28T15:16:16.534Z,23.58
2022-09-28T15:19:24.607Z,23.57
2022-09-28T15:22:17.955Z,22.98
2022-09-28T15:25:13.751Z,22.87
2022-09-28T15:28:06.837Z,22.98
2022-09-28T15:31:00.458Z,22.69
2022-09-28T15:34:04.855Z,22.08
2022-09-28T15:36:51.134Z,21.93
2022-09-28T15:39:37.127Z,22.20
2022-09-28T15:42:23.537Z,22.05
2022-09-28T15:45:27.772Z,22.21
2022-09-28T15:48:27.843Z,21.91
2022-09-28T15:51:13.949Z,22.04
2022-09-28T15:54:19.538Z,21.94
2022-09-28T15:57:06.053Z,22.01
2022-09-28T15:59:59.289Z,21.94
2022-09-28T16:03:08.782Z,21.80
2022-09-28T16:05:57.809Z,21.74
2022-09-28T16:08:45.678Z,21.81
2022-09-28T16:11:38.228Z,21.68
2022-09-28T16:14:25.124Z,21.66
2022-09-28T16:17:17.392Z,21.55
2022-09-28T16:20:18.866Z,21.57
2022-09-28T16:23:34.607Z,21.40
2022-09-28T16:26:34.137Z,20.99
2022-09-28T16:29:40.817Z,21.14
2022-09-28T16:32:26.737Z,21.22
2022-09-28T16:35:23.083Z,21.17
2022-09-28T16:38:17.117Z,21.11
2022-09-28T16:41:03.399Z,20.93
2022-09-28T16:43:55.136Z,21.02
2022-09-28T16:46:42.890Z,20.99
2022-09-28T16:49:31.630Z,20.85
2022-09-28T16:52:37.786Z,20.88
2022-09-28T16:55:39.436Z,20.78
2022-09-28T16:58:27.824Z,20.79
2022-09-28T17:01:14.041Z,20.73
2022-09-28T17:04:00.010Z,20.74
2022-09-28T17:06:46.037Z,20.52
2022-09-28T17:09:32.067Z,20.34
2022-09-28T17:12:24.681Z,20.04
2022-09-28T17:15:10.915Z,20.14
2022-09-28T17:17:57.529Z,20.07
2022-09-28T17:20:49.265Z,20.03
2022-09-28T17:23:35.720Z,19.92
2022-09-28T17:26:29.262Z,20.01
2022-09-28T17:29:15.925Z,19.96
2022-09-28T17:32:02.483Z,20.03
2022-09-28T17:35:00.743Z,20.15
2022-09-28T17:37:55.049Z,20.13
2022-09-28T17:40:45.545Z,20.18
2022-09-28T17:43:31.904Z,20.20
2022-09-28T17:46:23.018Z,20.18
2022-09-28T17:49:11.482Z,20.19
2022-09-28T17:51:57.631Z,20.15
2022-09-28T17:54:44.497Z,20.11
2022-09-28T17:57:30.692Z,20.11
2022-09-28T18:00:17.681Z,20.10
2022-09-28T18:03:03.747Z,20.08
2022-09-28T18:05:58.573Z,20.03
2022-09-28T18:08:44.534Z,19.84
2022-09-28T18:11:32.170Z,19.92
2022-09-28T18:14:18.037Z,19.92
2022-09-28T18:17:04.282Z,19.90
2022-09-28T18:19:50.614Z,19.86
2022-09-28T18:22:37.161Z,19.84
2022-09-28T18:25:23.193Z,19.76
2022-09-28T18:28:10.180Z,19.82
2022-09-28T18:30:56.320Z,19.80
2022-09-28T18:33:43.343Z,19.72
2022-09-28T18:36:33.312Z,19.70
2022-09-28T18:39:19.387Z,19.67
2022-09-28T18:42:05.877Z,19.56
2022-09-28T18:44:52.237Z,19.51
2022-09-28T18:47:39.114Z,19.49
2022-09-28T18:50:25.515Z,19.52
2022-09-28T18:53:12.036Z,19.49
2022-09-28T18:55:58.193Z,19.44
2022-09-28T18:58:45.038Z,19.43
2022-09-28T19:01:31.672Z,19.40
2022-09-28T19:04:20.074Z,19.36
2022-09-28T19:07:07.372Z,19.37
2022-09-28T19:09:53.890Z,19.28
2022-09-28T19:12:40.089Z,19.21
2022-09-28T19:15:26.204Z,19.29
2022-09-28T19:18:12.399Z,19.27
2022-09-28T19:21:05.323Z,19.13
2022-09-28T19:23:53.626Z,19.19
2022-09-28T19:26:40.060Z,19.16
2022-09-28T19:29:26.328Z,19.07
2022-09-28T19:32:12.775Z,19.09
2022-09-28T19:34:59.365Z,19.08
2022-09-28T19:37:46.775Z,19.03
2022-09-28T19:40:36.927Z,18.99
2022-09-28T19:43:22.765Z,18.97
2022-09-28T19:46:10.579Z,18.97
2022-09-28T19:49:00.824Z,18.94
2022-09-28T19:52:11.557Z,18.96
2022-09-28T19:54:58.201Z,18.89
2022-09-28T19:57:47.930Z,18.81
2022-09-28T20:00:34.048Z,18.86
2022-09-28T20:03:19.990Z,18.80
2022-09-28T20:06:06.262Z,18.79
2022-09-28T20:08:52.832Z,18.74
2022-09-28T20:11:39.117Z,18.74
2022-09-28T20:14:28.141Z,18.65
2022-09-28T20:17:16.563Z,18.67
2022-09-28T20:20:02.800Z,18.66
2022-09-28T20:22:48.781Z,18.61
2022-09-28T20:25:34.974Z,18.64
2022-09-28T20:28:20.886Z,18.53
2022-09-28T20:31:28.615Z,18.60
2022-09-28T20:34:14.924Z,18.57
2022-09-28T20:37:01.633Z,18.52
2022-09-28T20:39:47.947Z,18.51
2022-09-28T20:42:34.238Z,18.42
2022-09-28T20:45:20.065Z,18.50
2022-09-28T20:48:06.505Z,18.40
2022-09-28T20:51:03.210Z,18.38
2022-09-28T20:53:54.493Z,18.32
2022-09-28T20:56:40.771Z,18.40
2022-09-28T20:59:27.789Z,18.37
2022-09-28T21:02:16.011Z,18.37
2022-09-28T21:05:02.185Z,18.32
2022-09-28T21:07:47.982Z,18.25
2022-09-28T21:10:33.737Z,18.32
2022-09-28T21:13:23.532Z,18.30
2022-09-28T21:16:15.060Z,18.27
2022-09-28T21:19:01.441Z,18.21
2022-09-28T21:21:47.608Z,18.25
2022-09-28T21:24:33.657Z,18.19
2022-09-28T21:27:19.789Z,18.23
2022-09-28T21:30:06.407Z,18.22
2022-09-28T21:32:52.645Z,18.16
2022-09-28T21:35:41.262Z,18.13
2022-09-28T21:38:27.278Z,18.11
2022-09-28T21:41:13.411Z,18.05
2022-09-28T21:43:59.709Z,18.07
2022-09-28T21:46:45.893Z,18.09
2022-09-28T21:49:32.268Z,17.93
2022-09-28T21:52:18.267Z,18.01
2022-09-28T21:55:04.515Z,18.02
2022-09-28T21:57:51.451Z,17.98
2022-09-28T22:00:37.843Z,17.98
2022-09-28T22:03:24.597Z,17.90
2022-09-28T22:06:11.160Z,17.88
2022-09-28T22:08:57.458Z,17.95
2022-09-28T22:11:43.473Z,17.82
2022-09-28T22:14:29.348Z,17.89
2022-09-28T22:17:15.254Z,17.95
2022-09-28T22:20:01.480Z,17.65
2022-09-28T22:22:50.866Z,17.88
2022-09-28T22:25:36.713Z,17.88
2022-09-28T22:28:22.816Z,17.88
2022-09-28T22:31:09.007Z,17.85
2022-09-28T22:33:55.642Z,17.88
2022-09-28T22:36:41.657Z,17.82
2022-09-28T22:39:27.443Z,17.87
2022-09-28T22:42:13.376Z,17.87
2022-09-28T22:44:59.561Z,17.87
2022-09-28T22:47:45.531Z,17.86
2022-09-28T22:50:31.637Z,17.86
2022-09-28T22:53:18.668Z,17.80
2022-09-28T22:56:06.010Z,17.77
2022-09-28T22:58:52.429Z,17.78
2022-09-28T23:01:39.030Z,17.84
2022-09-28T23:04:25.170Z,17.75
2022-09-28T23:07:11.172Z,17.75
2022-09-28T23:09:58.775Z,17.81
2022-09-28T23:12:44.625Z,17.82
2022-09-28T23:15:30.504Z,17.81
2022-09-28T23:18:16.767Z,17.82
2022-09-28T23:21:05.613Z,17.79
2022-09-28T23:23:56.771Z,17.73
2022-09-28T23:26:42.725Z,17.80
2022-09-28T23:29:28.743Z,17.75
2022-09-28T23:32:16.654Z,17.78
2022-09-28T23:35:02.674Z,17.66
2022-09-28T23:37:51.793Z,17.74
2022-09-28T23:40:37.965Z,17.76
2022-09-28T23:43:23.885Z,17.72
2022-09-28T23:46:09.876Z,17.71
2022-09-28T23:48:55.669Z,17.72
2022-09-28T23:51:41.568Z,17.69
2022-09-28T23:54:27.549Z,17.67
2022-09-28T23:57:13.529Z,17.63
2022-09-28T23:59:59.463Z,17.72
